sensor_id;sensor_type;location;lat;lon;timestamp;noise_LAeq;noise_LA_min;noise_LA_max;noise_LA01;noise_LA95
74496;Laerm;62979;55.720;37.606;2023-02-08T00:01:34;46.57;40.67;57.02;;
74496;Laerm;62979;55.720;37.606;2023-02-08T00:04:01;43.85;39.00;53.06;;
74496;Laerm;62979;55.720;37.606;2023-02-08T00:06:28;46.48;39.68;68.06;;
74496;Laerm;62979;55.720;37.606;2023-02-08T00:08:55;45.80;39.60;57.68;;
74496;Laerm;62979;55.720;37.606;2023-02-08T00:11:21;49.12;40.35;72.59;;
74496;Laerm;62979;55.720;37.606;2023-02-08T00:13:48;48.92;40.25;69.85;;
74496;Laerm;62979;55.720;37.606;2023-02-08T00:16:15;48.51;40.13;68.55;;
74496;Laerm;62979;55.720;37.606;2023-02-08T00:18:44;48.42;40.23;70.20;;
74496;Laerm;62979;55.720;37.606;2023-02-08T00:21:13;46.25;40.24;62.64;;
74496;Laerm;62979;55.720;37.606;2023-02-08T00:23:41;46.03;39.96;68.29;;
74496;Laerm;62979;55.720;37.606;2023-02-08T00:26:09;44.86;39.67;61.45;;
74496;Laerm;62979;55.720;37.606;2023-02-08T00:28:36;48.06;39.89;65.33;;
74496;Laerm;62979;55.720;37.606;2023-02-08T00:31:04;46.72;39.64;57.50;;
74496;Laerm;62979;55.720;37.606;2023-02-08T00:33:31;43.66;39.44;53.05;;
74496;Laerm;62979;55.720;37.606;2023-02-08T00:36:00;44.75;40.10;52.37;;
74496;Laerm;62979;55.720;37.606;2023-02-08T00:38:28;44.11;39.65;58.48;;
74496;Laerm;62979;55.720;37.606;2023-02-08T00:40:55;43.97;39.37;55.81;;
74496;Laerm;62979;55.720;37.606;2023-02-08T00:43:21;48.56;40.12;68.22;;
74496;Laerm;62979;55.720;37.606;2023-02-08T00:45:53;43.30;38.25;52.85;;
74496;Laerm;62979;55.720;37.606;2023-02-08T00:48:20;43.69;39.55;48.16;;
74496;Laerm;62979;55.720;37.606;2023-02-08T00:50:59;45.82;39.96;56.34;;
74496;Laerm;62979;55.720;37.606;2023-02-08T00:53:26;44.09;38.82;53.06;;
74496;Laerm;62979;55.720;37.606;2023-02-08T00:55:54;43.73;38.69;55.62;;
74496;Laerm;62979;55.720;37.606;2023-02-08T00:58:23;43.22;38.56;55.53;;
74496;Laerm;62979;55.720;37.606;2023-02-08T01:00:51;43.20;38.92;48.43;;
74496;Laerm;62979;55.720;37.606;2023-02-08T01:03:18;43.67;39.74;51.22;;
74496;Laerm;62979;55.720;37.606;2023-02-08T01:05:45;49.29;40.09;70.97;;
74496;Laerm;62979;55.720;37.606;2023-02-08T01:08:14;50.03;40.42;76.48;;
74496;Laerm;62979;55.720;37.606;2023-02-08T01:10:40;46.23;39.85;69.55;;
74496;Laerm;62979;55.720;37.606;2023-02-08T01:13:08;44.02;39.58;58.43;;
74496;Laerm;62979;55.720;37.606;2023-02-08T01:15:35;45.10;39.81;60.36;;
74496;Laerm;62979;55.720;37.606;2023-02-08T01:18:03;51.99;40.77;72.11;;
74496;Laerm;62979;55.720;37.606;2023-02-08T01:20:33;47.89;40.23;60.75;;
74496;Laerm;62979;55.720;37.606;2023-02-08T01:23:00;44.72;38.85;54.53;;
74496;Laerm;62979;55.720;37.606;2023-02-08T01:25:29;49.91;39.07;71.53;;
74496;Laerm;62979;55.720;37.606;2023-02-08T01:27:55;45.55;40.09;59.91;;
74496;Laerm;62979;55.720;37.606;2023-02-08T01:30:23;53.94;40.87;73.87;;
74496;Laerm;62979;55.720;37.606;2023-02-08T01:32:50;51.49;39.84;69.70;;
74496;Laerm;62979;55.720;37.606;2023-02-08T01:35:17;46.20;38.88;70.38;;
74496;Laerm;62979;55.720;37.606;2023-02-08T01:37:44;44.79;39.96;63.90;;
74496;Laerm;62979;55.720;37.606;2023-02-08T01:40:11;53.32;40.06;76.46;;
74496;Laerm;62979;55.720;37.606;2023-02-08T01:42:40;49.41;40.89;72.48;;
74496;Laerm;62979;55.720;37.606;2023-02-08T01:45:27;50.71;39.84;79.69;;
74496;Laerm;62979;55.720;37.606;2023-02-08T01:48:03;53.68;38.92;78.91;;
74496;Laerm;62979;55.720;37.606;2023-02-08T01:50:42;51.11;38.78;79.15;;
74496;Laerm;62979;55.720;37.606;2023-02-08T01:53:11;55.09;39.54;81.98;;
74496;Laerm;62979;55.720;37.606;2023-02-08T01:55:45;55.42;40.75;80.13;;
74496;Laerm;62979;55.720;37.606;2023-02-08T01:58:17;51.38;40.72;69.44;;
74496;Laerm;62979;55.720;37.606;2023-02-08T02:00:46;50.39;39.80;69.50;;
74496;Laerm;62979;55.720;37.606;2023-02-08T02:03:14;48.80;40.26;73.69;;
74496;Laerm;62979;55.720;37.606;2023-02-08T02:05:44;46.72;39.63;67.07;;
74496;Laerm;62979;55.720;37.606;2023-02-08T02:08:13;45.92;40.88;62.74;;
74496;Laerm;62979;55.720;37.606;2023-02-08T02:10:41;48.80;40.84;58.61;;
74496;Laerm;62979;55.720;37.606;2023-02-08T02:13:12;54.46;42.01;74.59;;
74496;Laerm;62979;55.720;37.606;2023-02-08T02:15:44;48.09;41.19;70.16;;
74496;Laerm;62979;55.720;37.606;2023-02-08T02:18:17;50.81;41.06;75.17;;
74496;Laerm;62979;55.720;37.606;2023-02-08T02:21:20;55.22;40.17;84.05;;
74496;Laerm;62979;55.720;37.606;2023-02-08T02:24:16;46.79;39.20;64.81;;
74496;Laerm;62979;55.720;37.606;2023-02-08T02:27:21;49.45;40.63;73.47;;
74496;Laerm;62979;55.720;37.606;2023-02-08T02:33:40;44.43;40.07;50.29;;
74496;Laerm;62979;55.720;37.606;2023-02-08T02:36:17;51.64;40.68;66.31;;
74496;Laerm;62979;55.720;37.606;2023-02-08T02:39:00;46.89;41.82;64.10;;
74496;Laerm;62979;55.720;37.606;2023-02-08T02:41:50;46.57;41.73;61.87;;
74496;Laerm;62979;55.720;37.606;2023-02-08T02:44:50;47.15;42.04;57.91;;
74496;Laerm;62979;55.720;37.606;2023-02-08T02:47:37;51.22;42.14;69.13;;
74496;Laerm;62979;55.720;37.606;2023-02-08T02:50:19;50.96;41.40;63.23;;
74496;Laerm;62979;55.720;37.606;2023-02-08T02:52:58;49.61;42.82;66.56;;
74496;Laerm;62979;55.720;37.606;2023-02-08T02:55:32;47.92;42.05;66.76;;
74496;Laerm;62979;55.720;37.606;2023-02-08T02:58:04;50.32;40.57;62.06;;
74496;Laerm;62979;55.720;37.606;2023-02-08T03:00:32;49.56;41.37;61.11;;
74496;Laerm;62979;55.720;37.606;2023-02-08T03:02:59;50.75;43.94;58.88;;
74496;Laerm;62979;55.720;37.606;2023-02-08T03:05:29;47.00;42.62;61.44;;
74496;Laerm;62979;55.720;37.606;2023-02-08T03:08:09;52.63;43.45;64.26;;
74496;Laerm;62979;55.720;37.606;2023-02-08T03:10:54;53.11;44.60;69.73;;
74496;Laerm;62979;55.720;37.606;2023-02-08T03:13:34;51.87;46.19;61.32;;
74496;Laerm;62979;55.720;37.606;2023-02-08T03:16:16;54.78;45.11;69.01;;
74496;Laerm;62979;55.720;37.606;2023-02-08T03:19:02;49.44;44.00;55.29;;
74496;Laerm;62979;55.720;37.606;2023-02-08T03:21:40;48.47;43.31;56.76;;
74496;Laerm;62979;55.720;37.606;2023-02-08T03:24:25;52.45;43.34;62.30;;
74496;Laerm;62979;55.720;37.606;2023-02-08T03:27:03;54.14;44.65;66.97;;
74496;Laerm;62979;55.720;37.606;2023-02-08T03:29:45;53.91;45.82;66.53;;
74496;Laerm;62979;55.720;37.606;2023-02-08T03:32:18;53.75;45.67;67.14;;
74496;Laerm;62979;55.720;37.606;2023-02-08T03:34:54;53.04;46.05;62.59;;
74496;Laerm;62979;55.720;37.606;2023-02-08T03:37:29;57.77;46.42;68.80;;
74496;Laerm;62979;55.720;37.606;2023-02-08T03:40:03;52.81;46.70;64.16;;
74496;Laerm;62979;55.720;37.606;2023-02-08T03:42:34;51.46;46.14;64.85;;
74496;Laerm;62979;55.720;37.606;2023-02-08T03:45:11;51.89;46.05;58.86;;
74496;Laerm;62979;55.720;37.606;2023-02-08T03:47:44;53.08;46.32;63.44;;
74496;Laerm;62979;55.720;37.606;2023-02-08T03:50:16;53.40;46.00;69.05;;
74496;Laerm;62979;55.720;37.606;2023-02-08T03:52:48;54.79;47.38;65.51;;
74496;Laerm;62979;55.720;37.606;2023-02-08T03:55:20;51.61;46.43;64.65;;
74496;Laerm;62979;55.720;37.606;2023-02-08T03:57:54;54.20;46.93;64.91;;
74496;Laerm;62979;55.720;37.606;2023-02-08T04:00:23;53.96;46.66;62.51;;
74496;Laerm;62979;55.720;37.606;2023-02-08T04:02:56;54.64;45.94;68.67;;
74496;Laerm;62979;55.720;37.606;2023-02-08T04:05:27;53.22;47.85;60.89;;
74496;Laerm;62979;55.720;37.606;2023-02-08T04:07:55;52.91;46.25;66.35;;
74496;Laerm;62979;55.720;37.606;2023-02-08T04:10:22;52.77;46.36;60.03;;
74496;Laerm;62979;55.720;37.606;2023-02-08T04:12:49;53.30;49.02;60.96;;
74496;Laerm;62979;55.720;37.606;2023-02-08T04:15:16;59.76;47.21;74.35;;
74496;Laerm;62979;55.720;37.606;2023-02-08T04:17:43;55.36;48.25;72.98;;
74496;Laerm;62979;55.720;37.606;2023-02-08T04:20:11;53.93;48.59;65.49;;
74496;Laerm;62979;55.720;37.606;2023-02-08T04:22:38;54.79;48.39;73.32;;
74496;Laerm;62979;55.720;37.606;2023-02-08T04:25:07;55.89;50.71;65.58;;
74496;Laerm;62979;55.720;37.606;2023-02-08T04:27:34;55.45;49.80;62.95;;
74496;Laerm;62979;55.720;37.606;2023-02-08T04:30:00;57.37;49.49;67.67;;
74496;Laerm;62979;55.720;37.606;2023-02-08T04:32:27;56.98;49.32;72.47;;
74496;Laerm;62979;55.720;37.606;2023-02-08T04:34:54;57.32;50.97;64.88;;
74496;Laerm;62979;55.720;37.606;2023-02-08T04:37:21;55.08;49.43;66.47;;
74496;Laerm;62979;55.720;37.606;2023-02-08T04:39:48;55.13;49.04;68.28;;
74496;Laerm;62979;55.720;37.606;2023-02-08T04:42:17;55.44;50.01;65.03;;
74496;Laerm;62979;55.720;37.606;2023-02-08T04:44:44;56.13;50.48;64.14;;
74496;Laerm;62979;55.720;37.606;2023-02-08T04:47:10;57.79;50.31;68.67;;
74496;Laerm;62979;55.720;37.606;2023-02-08T04:49:37;57.96;51.45;65.73;;
74496;Laerm;62979;55.720;37.606;2023-02-08T04:52:04;58.06;52.62;66.83;;
74496;Laerm;62979;55.720;37.606;2023-02-08T04:54:31;58.44;51.01;66.31;;
74496;Laerm;62979;55.720;37.606;2023-02-08T04:56:58;60.66;50.59;77.19;;
74496;Laerm;62979;55.720;37.606;2023-02-08T04:59:27;57.87;51.65;67.32;;
74496;Laerm;62979;55.720;37.606;2023-02-08T05:01:54;60.46;52.32;74.45;;
74496;Laerm;62979;55.720;37.606;2023-02-08T05:04:21;64.25;53.24;71.71;;
74496;Laerm;62979;55.720;37.606;2023-02-08T05:06:47;60.79;55.05;77.14;;
74496;Laerm;62979;55.720;37.606;2023-02-08T05:09:14;63.14;53.00;83.23;;
74496;Laerm;62979;55.720;37.606;2023-02-08T05:11:41;63.34;57.28;75.01;;
74496;Laerm;62979;55.720;37.606;2023-02-08T05:14:08;60.08;52.51;76.68;;
74496;Laerm;62979;55.720;37.606;2023-02-08T05:16:36;63.71;54.81;74.42;;
74496;Laerm;62979;55.720;37.606;2023-02-08T05:19:04;59.89;54.64;66.23;;
74496;Laerm;62979;55.720;37.606;2023-02-08T05:21:30;58.12;52.61;64.48;;
74496;Laerm;62979;55.720;37.606;2023-02-08T05:23:57;57.85;51.59;64.48;;
74496;Laerm;62979;55.720;37.606;2023-02-08T05:26:24;58.48;51.38;67.72;;
74496;Laerm;62979;55.720;37.606;2023-02-08T05:28:51;63.82;57.79;71.55;;
74496;Laerm;62979;55.720;37.606;2023-02-08T05:31:22;62.69;58.12;71.51;;
74496;Laerm;62979;55.720;37.606;2023-02-08T05:33:51;62.71;58.17;68.24;;
74496;Laerm;62979;55.720;37.606;2023-02-08T05:36:19;64.45;57.90;68.64;;
74496;Laerm;62979;55.720;37.606;2023-02-08T05:38:48;60.42;52.51;72.03;;
74496;Laerm;62979;55.720;37.606;2023-02-08T05:41:15;57.89;51.80;65.11;;
74496;Laerm;62979;55.720;37.606;2023-02-08T05:43:42;57.49;50.66;65.06;;
74496;Laerm;62979;55.720;37.606;2023-02-08T05:46:10;58.33;52.45;74.34;;
74496;Laerm;62979;55.720;37.606;2023-02-08T05:48:37;57.23;50.90;64.83;;
74496;Laerm;62979;55.720;37.606;2023-02-08T05:51:06;59.43;51.45;66.78;;
74496;Laerm;62979;55.720;37.606;2023-02-08T05:53:33;56.70;50.63;71.35;;
74496;Laerm;62979;55.720;37.606;2023-02-08T05:56:00;58.77;51.22;73.79;;
74496;Laerm;62979;55.720;37.606;2023-02-08T05:58:26;58.32;51.47;66.75;;
74496;Laerm;62979;55.720;37.606;2023-02-08T06:00:53;58.16;52.00;66.23;;
74496;Laerm;62979;55.720;37.606;2023-02-08T06:03:21;57.86;52.37;70.62;;
74496;Laerm;62979;55.720;37.606;2023-02-08T06:05:48;58.94;49.24;69.19;;
74496;Laerm;62979;55.720;37.606;2023-02-08T06:08:16;57.87;50.40;68.93;;
74496;Laerm;62979;55.720;37.606;2023-02-08T06:10:43;56.08;49.92;64.92;;
74496;Laerm;62979;55.720;37.606;2023-02-08T06:13:10;57.88;50.93;64.11;;
74496;Laerm;62979;55.720;37.606;2023-02-08T06:15:37;60.09;51.32;73.48;;
74496;Laerm;62979;55.720;37.606;2023-02-08T06:18:04;57.67;50.88;68.74;;
74496;Laerm;62979;55.720;37.606;2023-02-08T06:20:31;58.52;50.03;75.48;;
74496;Laerm;62979;55.720;37.606;2023-02-08T06:22:58;56.33;50.05;65.32;;
74496;Laerm;62979;55.720;37.606;2023-02-08T06:25:27;58.03;50.53;64.72;;
74496;Laerm;62979;55.720;37.606;2023-02-08T06:27:54;57.13;51.21;63.84;;
74496;Laerm;62979;55.720;37.606;2023-02-08T06:30:21;57.89;51.66;66.70;;
74496;Laerm;62979;55.720;37.606;2023-02-08T06:32:48;57.61;51.37;65.07;;
74496;Laerm;62979;55.720;37.606;2023-02-08T06:35:15;57.91;50.13;66.41;;
74496;Laerm;62979;55.720;37.606;2023-02-08T06:37:42;58.33;49.95;66.23;;
74496;Laerm;62979;55.720;37.606;2023-02-08T06:40:09;56.82;50.81;69.46;;
74496;Laerm;62979;55.720;37.606;2023-02-08T06:42:37;59.29;51.93;80.01;;
74496;Laerm;62979;55.720;37.606;2023-02-08T06:45:06;57.32;51.07;64.90;;
74496;Laerm;62979;55.720;37.606;2023-02-08T06:47:34;58.41;51.37;66.02;;
74496;Laerm;62979;55.720;37.606;2023-02-08T06:50:01;57.64;50.43;68.68;;
74496;Laerm;62979;55.720;37.606;2023-02-08T06:52:28;56.78;51.10;66.39;;
74496;Laerm;62979;55.720;37.606;2023-02-08T06:54:54;57.51;52.15;65.09;;
74496;Laerm;62979;55.720;37.606;2023-02-08T06:57:21;57.38;49.86;64.12;;
74496;Laerm;62979;55.720;37.606;2023-02-08T06:59:50;55.37;49.00;64.01;;
74496;Laerm;62979;55.720;37.606;2023-02-08T07:02:20;56.55;50.21;65.53;;
74496;Laerm;62979;55.720;37.606;2023-02-08T07:04:47;55.94;50.40;65.67;;
74496;Laerm;62979;55.720;37.606;2023-02-08T07:07:16;55.46;49.47;65.39;;
74496;Laerm;62979;55.720;37.606;2023-02-08T07:09:43;55.54;49.92;65.29;;
74496;Laerm;62979;55.720;37.606;2023-02-08T07:12:10;59.12;51.43;67.54;;
74496;Laerm;62979;55.720;37.606;2023-02-08T07:14:39;57.23;51.70;68.67;;
74496;Laerm;62979;55.720;37.606;2023-02-08T07:17:10;56.33;49.31;63.00;;
74496;Laerm;62979;55.720;37.606;2023-02-08T07:19:37;56.91;50.26;66.78;;
74496;Laerm;62979;55.720;37.606;2023-02-08T07:22:05;57.52;50.52;68.58;;
74496;Laerm;62979;55.720;37.606;2023-02-08T07:24:34;57.19;49.85;65.65;;
74496;Laerm;62979;55.720;37.606;2023-02-08T07:27:02;57.72;51.04;66.58;;
74496;Laerm;62979;55.720;37.606;2023-02-08T07:29:32;58.18;51.54;66.80;;
74496;Laerm;62979;55.720;37.606;2023-02-08T07:32:00;55.63;49.53;63.53;;
74496;Laerm;62979;55.720;37.606;2023-02-08T07:34:30;56.28;51.19;64.23;;
74496;Laerm;62979;55.720;37.606;2023-02-08T07:36:57;57.96;51.83;64.94;;
74496;Laerm;62979;55.720;37.606;2023-02-08T07:39:25;57.04;51.23;63.59;;
74496;Laerm;62979;55.720;37.606;2023-02-08T07:41:52;59.46;51.94;68.68;;
74496;Laerm;62979;55.720;37.606;2023-02-08T07:44:19;56.94;50.59;63.87;;
74496;Laerm;62979;55.720;37.606;2023-02-08T07:46:46;57.38;49.65;66.29;;
74496;Laerm;62979;55.720;37.606;2023-02-08T07:49:14;57.66;50.09;66.65;;
74496;Laerm;62979;55.720;37.606;2023-02-08T07:51:42;56.93;51.86;70.34;;
74496;Laerm;62979;55.720;37.606;2023-02-08T07:54:09;58.37;51.72;72.31;;
74496;Laerm;62979;55.720;37.606;2023-02-08T07:56:36;57.13;51.67;65.81;;
74496;Laerm;62979;55.720;37.606;2023-02-08T07:59:03;56.87;50.83;67.38;;
74496;Laerm;62979;55.720;37.606;2023-02-08T08:01:30;58.39;50.37;76.69;;
74496;Laerm;62979;55.720;37.606;2023-02-08T08:03:56;61.80;51.01;76.79;;
74496;Laerm;62979;55.720;37.606;2023-02-08T08:06:23;61.02;52.57;75.84;;
74496;Laerm;62979;55.720;37.606;2023-02-08T08:08:52;62.42;52.43;77.75;;
74496;Laerm;62979;55.720;37.606;2023-02-08T08:11:20;61.18;50.90;77.40;;
74496;Laerm;62979;55.720;37.606;2023-02-08T08:13:48;63.81;53.09;81.58;;
74496;Laerm;62979;55.720;37.606;2023-02-08T08:16:15;61.38;50.00;82.59;;
74496;Laerm;62979;55.720;37.606;2023-02-08T08:18:42;59.19;49.76;72.57;;
74496;Laerm;62979;55.720;37.606;2023-02-08T08:21:09;59.20;51.28;67.63;;
74496;Laerm;62979;55.720;37.606;2023-02-08T08:23:36;57.08;49.41;70.62;;
74496;Laerm;62979;55.720;37.606;2023-02-08T08:26:10;57.87;51.40;68.40;;
74496;Laerm;62979;55.720;37.606;2023-02-08T08:28:38;57.27;50.52;66.61;;
74496;Laerm;62979;55.720;37.606;2023-02-08T08:31:09;56.04;49.75;63.04;;
74496;Laerm;62979;55.720;37.606;2023-02-08T08:33:37;57.20;51.15;67.11;;
74496;Laerm;62979;55.720;37.606;2023-02-08T08:36:04;56.91;51.42;68.21;;
74496;Laerm;62979;55.720;37.606;2023-02-08T08:38:31;57.62;50.55;67.19;;
74496;Laerm;62979;55.720;37.606;2023-02-08T08:40:58;59.87;53.00;74.44;;
74496;Laerm;62979;55.720;37.606;2023-02-08T08:43:26;57.02;51.07;65.54;;
74496;Laerm;62979;55.720;37.606;2023-02-08T08:45:53;58.13;52.15;65.88;;
74496;Laerm;62979;55.720;37.606;2023-02-08T08:48:20;59.22;50.90;69.23;;
74496;Laerm;62979;55.720;37.606;2023-02-08T08:50:47;56.55;50.85;69.91;;
74496;Laerm;62979;55.720;37.606;2023-02-08T08:53:14;56.23;50.88;67.15;;
74496;Laerm;62979;55.720;37.606;2023-02-08T08:55:40;58.24;51.79;74.70;;
74496;Laerm;62979;55.720;37.606;2023-02-08T08:58:07;57.80;50.30;64.33;;
74496;Laerm;62979;55.720;37.606;2023-02-08T09:00:36;56.38;50.58;62.43;;
74496;Laerm;62979;55.720;37.606;2023-02-08T09:03:04;56.60;49.02;66.58;;
74496;Laerm;62979;55.720;37.606;2023-02-08T09:05:31;59.53;53.01;84.22;;
74496;Laerm;62979;55.720;37.606;2023-02-08T09:07:58;57.01;51.05;69.39;;
74496;Laerm;62979;55.720;37.606;2023-02-08T09:10:25;58.10;49.64;66.35;;
74496;Laerm;62979;55.720;37.606;2023-02-08T09:12:52;56.30;50.65;64.34;;
74496;Laerm;62979;55.720;37.606;2023-02-08T09:15:19;59.00;52.31;79.86;;
74496;Laerm;62979;55.720;37.606;2023-02-08T09:17:48;56.79;51.67;64.53;;
74496;Laerm;62979;55.720;37.606;2023-02-08T09:20:15;57.46;52.54;70.66;;
74496;Laerm;62979;55.720;37.606;2023-02-08T09:22:42;59.43;51.99;69.92;;
74496;Laerm;62979;55.720;37.606;2023-02-08T09:25:09;58.50;51.97;65.36;;
74496;Laerm;62979;55.720;37.606;2023-02-08T09:27:36;57.83;51.11;65.99;;
74496;Laerm;62979;55.720;37.606;2023-02-08T09:30:05;58.03;52.62;69.94;;
74496;Laerm;62979;55.720;37.606;2023-02-08T09:32:33;58.66;51.91;72.27;;
74496;Laerm;62979;55.720;37.606;2023-02-08T09:35:02;60.15;51.27;71.91;;
74496;Laerm;62979;55.720;37.606;2023-02-08T09:37:29;58.18;51.39;66.93;;
74496;Laerm;62979;55.720;37.606;2023-02-08T09:39:56;58.39;51.62;67.72;;
74496;Laerm;62979;55.720;37.606;2023-02-08T09:42:36;57.75;51.03;65.44;;
74496;Laerm;62979;55.720;37.606;2023-02-08T09:45:25;56.63;51.56;63.75;;
74496;Laerm;62979;55.720;37.606;2023-02-08T09:48:04;57.51;51.17;75.32;;
74496;Laerm;62979;55.720;37.606;2023-02-08T09:50:42;57.61;50.33;65.03;;
74496;Laerm;62979;55.720;37.606;2023-02-08T09:53:16;58.45;52.98;69.15;;
74496;Laerm;62979;55.720;37.606;2023-02-08T09:55:48;57.67;51.81;63.20;;
74496;Laerm;62979;55.720;37.606;2023-02-08T09:58:23;59.45;53.18;70.56;;
74496;Laerm;62979;55.720;37.606;2023-02-08T10:00:54;58.04;53.15;65.20;;
74496;Laerm;62979;55.720;37.606;2023-02-08T10:03:33;57.79;51.72;64.41;;
74496;Laerm;62979;55.720;37.606;2023-02-08T10:06:05;58.42;52.05;77.99;;
74496;Laerm;62979;55.720;37.606;2023-02-08T10:08:34;56.89;50.55;66.01;;
74496;Laerm;62979;55.720;37.606;2023-02-08T10:11:22;58.30;50.98;65.73;;
74496;Laerm;62979;55.720;37.606;2023-02-08T10:14:15;58.15;52.07;77.70;;
74496;Laerm;62979;55.720;37.606;2023-02-08T10:17:04;58.53;53.82;69.93;;
74496;Laerm;62979;55.720;37.606;2023-02-08T10:19:55;57.06;52.20;64.44;;
74496;Laerm;62979;55.720;37.606;2023-02-08T10:22:43;58.02;51.71;68.17;;
74496;Laerm;62979;55.720;37.606;2023-02-08T10:25:45;56.29;51.62;68.02;;
74496;Laerm;62979;55.720;37.606;2023-02-08T10:31:28;58.21;51.32;69.94;;
74496;Laerm;62979;55.720;37.606;2023-02-08T10:34:03;59.87;50.92;65.30;;
74496;Laerm;62979;55.720;37.606;2023-02-08T10:36:38;57.01;48.64;64.13;;
74496;Laerm;62979;55.720;37.606;2023-02-08T10:39:15;56.22;50.73;77.48;;
74496;Laerm;62979;55.720;37.606;2023-02-08T10:41:44;57.34;51.34;75.25;;
74496;Laerm;62979;55.720;37.606;2023-02-08T10:44:21;57.06;49.95;78.47;;
74496;Laerm;62979;55.720;37.606;2023-02-08T10:46:58;57.37;50.33;77.37;;
74496;Laerm;62979;55.720;37.606;2023-02-08T10:49:37;58.29;49.57;80.02;;
74496;Laerm;62979;55.720;37.606;2023-02-08T10:52:06;59.57;51.84;83.37;;
74496;Laerm;62979;55.720;37.606;2023-02-08T10:54:34;58.60;52.94;66.39;;
74496;Laerm;62979;55.720;37.606;2023-02-08T10:57:05;56.41;50.68;73.93;;
74496;Laerm;62979;55.720;37.606;2023-02-08T10:59:46;57.85;52.75;68.86;;
74496;Laerm;62979;55.720;37.606;2023-02-08T11:02:22;58.11;52.27;70.32;;
74496;Laerm;62979;55.720;37.606;2023-02-08T11:04:59;58.27;52.71;68.25;;
74496;Laerm;62979;55.720;37.606;2023-02-08T11:07:26;62.91;54.23;77.94;;
74496;Laerm;62979;55.720;37.606;2023-02-08T11:10:14;63.30;51.46;76.32;;
74496;Laerm;62979;55.720;37.606;2023-02-08T11:12:53;58.70;52.69;72.69;;
74496;Laerm;62979;55.720;37.606;2023-02-08T11:15:24;58.16;52.10;74.79;;
74496;Laerm;62979;55.720;37.606;2023-02-08T11:17:56;57.21;51.22;74.16;;
74496;Laerm;62979;55.720;37.606;2023-02-08T11:20:31;57.68;49.95;73.18;;
74496;Laerm;62979;55.720;37.606;2023-02-08T11:23:02;59.39;52.32;71.11;;
74496;Laerm;62979;55.720;37.606;2023-02-08T11:25:38;56.41;51.36;62.52;;
74496;Laerm;62979;55.720;37.606;2023-02-08T11:28:26;58.32;51.09;69.93;;
74496;Laerm;62979;55.720;37.606;2023-02-08T11:31:02;59.95;51.69;72.16;;
74496;Laerm;62979;55.720;37.606;2023-02-08T11:33:33;58.19;51.14;74.11;;
74496;Laerm;62979;55.720;37.606;2023-02-08T11:36:10;60.09;53.06;78.14;;
74496;Laerm;62979;55.720;37.606;2023-02-08T11:38:42;57.67;51.49;76.62;;
74496;Laerm;62979;55.720;37.606;2023-02-08T11:41:17;58.89;50.83;76.22;;
74496;Laerm;62979;55.720;37.606;2023-02-08T11:44:00;58.39;52.74;68.94;;
74496;Laerm;62979;55.720;37.606;2023-02-08T11:46:31;60.08;53.21;72.41;;
74496;Laerm;62979;55.720;37.606;2023-02-08T11:48:59;58.26;51.06;71.08;;
74496;Laerm;62979;55.720;37.606;2023-02-08T11:51:30;56.58;48.27;73.80;;
74496;Laerm;62979;55.720;37.606;2023-02-08T11:53:59;60.67;49.99;82.65;;
74496;Laerm;62979;55.720;37.606;2023-02-08T11:56:30;60.08;52.13;72.28;;
74496;Laerm;62979;55.720;37.606;2023-02-08T11:59:14;58.37;50.65;67.50;;
74496;Laerm;62979;55.720;37.606;2023-02-08T12:01:43;57.83;52.39;70.14;;
74496;Laerm;62979;55.720;37.606;2023-02-08T12:04:13;57.31;50.34;66.21;;
74496;Laerm;62979;55.720;37.606;2023-02-08T12:07:20;56.20;49.48;68.68;;
74496;Laerm;62979;55.720;37.606;2023-02-08T12:10:26;58.26;51.54;68.52;;
74496;Laerm;62979;55.720;37.606;2023-02-08T12:13:21;58.03;51.05;79.85;;
74496;Laerm;62979;55.720;37.606;2023-02-08T12:16:08;58.71;52.82;76.81;;
74496;Laerm;62979;55.720;37.606;2023-02-08T12:19:04;58.08;51.11;72.12;;
74496;Laerm;62979;55.720;37.606;2023-02-08T12:21:39;59.99;51.99;72.88;;
74496;Laerm;62979;55.720;37.606;2023-02-08T12:24:22;58.23;52.98;71.55;;
74496;Laerm;62979;55.720;37.606;2023-02-08T12:27:16;62.55;52.95;86.24;;
74496;Laerm;62979;55.720;37.606;2023-02-08T12:30:00;61.61;54.86;73.12;;
74496;Laerm;62979;55.720;37.606;2023-02-08T12:32:58;60.11;50.83;81.42;;
74496;Laerm;62979;55.720;37.606;2023-02-08T12:35:55;57.16;51.62;66.03;;
74496;Laerm;62979;55.720;37.606;2023-02-08T12:38:41;58.74;51.80;76.32;;
74496;Laerm;62979;55.720;37.606;2023-02-08T12:41:36;59.89;52.35;70.75;;
74496;Laerm;62979;55.720;37.606;2023-02-08T12:44:18;56.62;49.96;64.40;;
74496;Laerm;62979;55.720;37.606;2023-02-08T12:46:59;56.88;51.91;65.48;;
74496;Laerm;62979;55.720;37.606;2023-02-08T12:49:56;58.23;52.45;67.32;;
74496;Laerm;62979;55.720;37.606;2023-02-08T12:52:35;55.91;50.33;66.58;;
74496;Laerm;62979;55.720;37.606;2023-02-08T12:55:16;57.87;52.38;73.54;;
74496;Laerm;62979;55.720;37.606;2023-02-08T12:57:52;57.78;50.77;76.22;;
74496;Laerm;62979;55.720;37.606;2023-02-08T13:00:25;56.43;49.65;75.56;;
74496;Laerm;62979;55.720;37.606;2023-02-08T13:03:04;56.28;51.12;64.88;;
74496;Laerm;62979;55.720;37.606;2023-02-08T13:05:39;57.43;52.32;71.09;;
74496;Laerm;62979;55.720;37.606;2023-02-08T13:08:23;57.85;50.24;76.00;;
74496;Laerm;62979;55.720;37.606;2023-02-08T13:10:57;56.89;50.56;63.71;;
74496;Laerm;62979;55.720;37.606;2023-02-08T13:13:32;57.25;51.20;65.49;;
74496;Laerm;62979;55.720;37.606;2023-02-08T13:16:07;57.96;50.47;72.17;;
74496;Laerm;62979;55.720;37.606;2023-02-08T13:18:42;58.11;51.96;64.35;;
74496;Laerm;62979;55.720;37.606;2023-02-08T13:21:16;57.66;51.29;68.05;;
74496;Laerm;62979;55.720;37.606;2023-02-08T13:23:48;56.48;51.22;66.53;;
74496;Laerm;62979;55.720;37.606;2023-02-08T13:26:19;57.40;51.69;66.63;;
74496;Laerm;62979;55.720;37.606;2023-02-08T13:28:52;58.86;52.21;68.00;;
74496;Laerm;62979;55.720;37.606;2023-02-08T13:31:23;58.37;53.23;77.25;;
74496;Laerm;62979;55.720;37.606;2023-02-08T13:33:57;57.92;52.66;64.40;;
74496;Laerm;62979;55.720;37.606;2023-02-08T13:36:29;57.84;53.80;64.71;;
74496;Laerm;62979;55.720;37.606;2023-02-08T13:39:01;60.38;55.24;76.41;;
74496;Laerm;62979;55.720;37.606;2023-02-08T13:41:31;57.57;51.21;65.41;;
74496;Laerm;62979;55.720;37.606;2023-02-08T13:44:02;58.15;52.55;69.34;;
74496;Laerm;62979;55.720;37.606;2023-02-08T13:46:36;58.12;52.54;68.06;;
74496;Laerm;62979;55.720;37.606;2023-02-08T13:49:50;58.04;53.81;68.16;;
74496;Laerm;62979;55.720;37.606;2023-02-08T13:52:49;58.69;53.07;73.61;;
74496;Laerm;62979;55.720;37.606;2023-02-08T13:55:50;58.65;51.87;76.26;;
74496;Laerm;62979;55.720;37.606;2023-02-08T14:01:21;60.12;53.95;74.10;;
74496;Laerm;62979;55.720;37.606;2023-02-08T14:07:14;60.25;54.37;74.54;;
74496;Laerm;62979;55.720;37.606;2023-02-08T14:10:00;59.13;53.17;70.10;;
74496;Laerm;62979;55.720;37.606;2023-02-08T14:12:37;57.60;52.65;65.78;;
74496;Laerm;62979;55.720;37.606;2023-02-08T14:15:35;59.36;52.49;70.15;;